sensor_id;sensor_type;location;lat;lon;timestamp;P1;durP1;ratioP1;P2;durP2;ratioP2
56297;SDS011;42208;6.376;-10.782;2022-10-16T00:01:27;16.10;;;3.50;;
56297;SDS011;42208;6.376;-10.782;2022-10-16T00:04:00;12.98;;;3.90;;
56297;SDS011;42208;6.376;-10.782;2022-10-16T00:06:29;16.67;;;3.63;;
56297;SDS011;42208;6.376;-10.782;2022-10-16T00:08:58;18.88;;;5.10;;
56297;SDS011;42208;6.376;-10.782;2022-10-16T00:11:27;20.08;;;5.25;;
56297;SDS011;42208;6.376;-10.782;2022-10-16T00:13:58;15.33;;;5.23;;
56297;SDS011;42208;6.376;-10.782;2022-10-16T00:16:28;13.15;;;4.85;;
56297;SDS011;42208;6.376;-10.782;2022-10-16T00:18:56;16.50;;;5.20;;
56297;SDS011;42208;6.376;-10.782;2022-10-16T00:21:26;13.00;;;5.55;;
56297;SDS011;42208;6.376;-10.782;2022-10-16T00:23:57;12.68;;;5.82;;
56297;SDS011;42208;6.376;-10.782;2022-10-16T00:26:34;15.30;;;5.85;;
56297;SDS011;42208;6.376;-10.782;2022-10-16T00:29:04;16.52;;;6.38;;
56297;SDS011;42208;6.376;-10.782;2022-10-16T00:31:32;18.27;;;7.50;;
56297;SDS011;42208;6.376;-10.782;2022-10-16T00:34:01;15.63;;;7.60;;
56297;SDS011;42208;6.376;-10.782;2022-10-16T00:36:29;23.40;;;6.78;;
56297;SDS011;42208;6.376;-10.782;2022-10-16T00:38:57;13.68;;;6.93;;
56297;SDS011;42208;6.376;-10.782;2022-10-16T00:41:27;16.25;;;7.05;;
56297;SDS011;42208;6.376;-10.782;2022-10-16T00:43:56;22.58;;;7.65;;
56297;SDS011;42208;6.376;-10.782;2022-10-16T00:49:13;15.27;;;6.63;;
56297;SDS011;42208;6.376;-10.782;2022-10-16T00:54:21;17.02;;;6.47;;
56297;SDS011;42208;6.376;-10.782;2022-10-16T00:56:52;21.85;;;6.88;;
56297;SDS011;42208;6.376;-10.782;2022-10-16T00:59:29;14.57;;;6.20;;
56297;SDS011;42208;6.376;-10.782;2022-10-16T01:02:06;24.13;;;6.32;;
56297;SDS011;42208;6.376;-10.782;2022-10-16T01:04:38;18.48;;;6.15;;
56297;SDS011;42208;6.376;-10.782;2022-10-16T01:07:12;17.35;;;6.40;;
56297;SDS011;42208;6.376;-10.782;2022-10-16T01:10:02;19.02;;;6.93;;
56297;SDS011;42208;6.376;-10.782;2022-10-16T01:12:45;15.73;;;5.72;;
56297;SDS011;42208;6.376;-10.782;2022-10-16T01:15:27;16.42;;;5.80;;
56297;SDS011;42208;6.376;-10.782;2022-10-16T01:18:14;12.93;;;6.07;;
56297;SDS011;42208;6.376;-10.782;2022-10-16T01:21:05;13.27;;;5.43;;
56297;SDS011;42208;6.376;-10.782;2022-10-16T01:32:00;13.15;;;6.03;;
56297;SDS011;42208;6.376;-10.782;2022-10-16T01:34:42;11.93;;;5.82;;
56297;SDS011;42208;6.376;-10.782;2022-10-16T01:37:29;12.45;;;6.45;;
56297;SDS011;42208;6.376;-10.782;2022-10-16T01:40:09;14.38;;;7.20;;
56297;SDS011;42208;6.376;-10.782;2022-10-16T01:42:44;16.88;;;8.63;;
56297;SDS011;42208;6.376;-10.782;2022-10-16T01:45:15;17.80;;;7.68;;
56297;SDS011;42208;6.376;-10.782;2022-10-16T01:47:46;20.17;;;8.80;;
56297;SDS011;42208;6.376;-10.782;2022-10-16T01:50:17;23.67;;;8.25;;
56297;SDS011;42208;6.376;-10.782;2022-10-16T01:52:48;21.17;;;8.93;;
56297;SDS011;42208;6.376;-10.782;2022-10-16T01:55:24;14.38;;;8.45;;
56297;SDS011;42208;6.376;-10.782;2022-10-16T01:58:01;16.77;;;7.47;;
56297;SDS011;42208;6.376;-10.782;2022-10-16T02:00:31;17.10;;;7.88;;
56297;SDS011;42208;6.376;-10.782;2022-10-16T02:03:00;19.38;;;8.52;;
56297;SDS011;42208;6.376;-10.782;2022-10-16T02:05:32;23.05;;;8.15;;
56297;SDS011;42208;6.376;-10.782;2022-10-16T02:08:06;19.10;;;7.88;;
56297;SDS011;42208;6.376;-10.782;2022-10-16T02:10:34;15.18;;;7.82;;
56297;SDS011;42208;6.376;-10.782;2022-10-16T02:13:09;11.70;;;7.25;;
56297;SDS011;42208;6.376;-10.782;2022-10-16T02:15:38;18.88;;;7.88;;
56297;SDS011;42208;6.376;-10.782;2022-10-16T02:18:07;19.90;;;8.68;;
56297;SDS011;42208;6.376;-10.782;2022-10-16T02:20:39;12.82;;;6.95;;
56297;SDS011;42208;6.376;-10.782;2022-10-16T02:23:23;16.50;;;7.72;;
56297;SDS011;42208;6.376;-10.782;2022-10-16T02:26:05;17.50;;;7.57;;
56297;SDS011;42208;6.376;-10.782;2022-10-16T02:28:44;14.00;;;7.53;;
56297;SDS011;42208;6.376;-10.782;2022-10-16T02:31:16;13.55;;;7.47;;
56297;SDS011;42208;6.376;-10.782;2022-10-16T02:33:50;12.63;;;7.22;;
56297;SDS011;42208;6.376;-10.782;2022-10-16T02:36:20;15.52;;;6.90;;
56297;SDS011;42208;6.376;-10.782;2022-10-16T02:38:49;19.70;;;7.80;;
56297;SDS011;42208;6.376;-10.782;2022-10-16T02:41:18;16.02;;;6.80;;
56297;SDS011;42208;6.376;-10.782;2022-10-16T02:43:48;15.07;;;7.50;;
56297;SDS011;42208;6.376;-10.782;2022-10-16T02:46:16;11.27;;;6.60;;
56297;SDS011;42208;6.376;-10.782;2022-10-16T02:48:45;13.63;;;7.38;;
56297;SDS011;42208;6.376;-10.782;2022-10-16T02:51:13;11.82;;;6.35;;
56297;SDS011;42208;6.376;-10.782;2022-10-16T02:53:42;16.20;;;5.70;;
56297;SDS011;42208;6.376;-10.782;2022-10-16T02:56:10;16.02;;;5.88;;
56297;SDS011;42208;6.376;-10.782;2022-10-16T02:58:38;15.13;;;5.88;;
56297;SDS011;42208;6.376;-10.782;2022-10-16T03:01:06;12.80;;;5.28;;
56297;SDS011;42208;6.376;-10.782;2022-10-16T03:03:35;15.38;;;5.75;;
56297;SDS011;42208;6.376;-10.782;2022-10-16T03:06:03;12.00;;;5.55;;
56297;SDS011;42208;6.376;-10.782;2022-10-16T03:08:31;17.17;;;7.65;;
56297;SDS011;42208;6.376;-10.782;2022-10-16T03:10:59;17.63;;;7.57;;
56297;SDS011;42208;6.376;-10.782;2022-10-16T03:13:28;16.13;;;8.45;;
56297;SDS011;42208;6.376;-10.782;2022-10-16T03:15:56;19.63;;;9.95;;
56297;SDS011;42208;6.376;-10.782;2022-10-16T03:18:24;38.42;;;12.80;;
56297;SDS011;42208;6.376;-10.782;2022-10-16T03:20:52;25.58;;;9.73;;
56297;SDS011;42208;6.376;-10.782;2022-10-16T03:23:20;18.90;;;8.07;;
56297;SDS011;42208;6.376;-10.782;2022-10-16T03:25:48;19.15;;;8.85;;
56297;SDS011;42208;6.376;-10.782;2022-10-16T03:28:16;16.95;;;6.40;;
56297;SDS011;42208;6.376;-10.782;2022-10-16T03:30:45;11.05;;;4.43;;
56297;SDS011;42208;6.376;-10.782;2022-10-16T03:33:13;11.93;;;4.65;;
56297;SDS011;42208;6.376;-10.782;2022-10-16T03:35:41;12.43;;;4.78;;
56297;SDS011;42208;6.376;-10.782;2022-10-16T03:38:09;8.35;;;3.33;;
56297;SDS011;42208;6.376;-10.782;2022-10-16T03:40:37;5.93;;;2.80;;
56297;SDS011;42208;6.376;-10.782;2022-10-16T03:43:05;7.93;;;2.78;;
56297;SDS011;42208;6.376;-10.782;2022-10-16T03:45:34;7.50;;;2.85;;
56297;SDS011;42208;6.376;-10.782;2022-10-16T03:48:02;12.55;;;3.80;;
56297;SDS011;42208;6.376;-10.782;2022-10-16T03:50:30;5.65;;;3.15;;
56297;SDS011;42208;6.376;-10.782;2022-10-16T03:52:58;6.80;;;3.10;;
56297;SDS011;42208;6.376;-10.782;2022-10-16T03:55:26;7.10;;;3.22;;
56297;SDS011;42208;6.376;-10.782;2022-10-16T03:57:55;9.27;;;2.90;;
56297;SDS011;42208;6.376;-10.782;2022-10-16T04:00:23;12.60;;;3.50;;
56297;SDS011;42208;6.376;-10.782;2022-10-16T04:02:51;12.40;;;2.95;;
56297;SDS011;42208;6.376;-10.782;2022-10-16T04:05:19;7.65;;;2.55;;
56297;SDS011;42208;6.376;-10.782;2022-10-16T04:07:48;8.52;;;2.65;;
56297;SDS011;42208;6.376;-10.782;2022-10-16T04:10:16;9.63;;;3.05;;
56297;SDS011;42208;6.376;-10.782;2022-10-16T04:12:44;7.28;;;3.10;;
56297;SDS011;42208;6.376;-10.782;2022-10-16T04:15:12;9.63;;;3.65;;
56297;SDS011;42208;6.376;-10.782;2022-10-16T04:17:40;8.93;;;3.00;;
56297;SDS011;42208;6.376;-10.782;2022-10-16T04:20:09;8.15;;;3.28;;
56297;SDS011;42208;6.376;-10.782;2022-10-16T04:22:37;9.00;;;3.38;;
56297;SDS011;42208;6.376;-10.782;2022-10-16T04:25:05;5.90;;;2.80;;
56297;SDS011;42208;6.376;-10.782;2022-10-16T04:27:33;10.40;;;3.33;;
56297;SDS011;42208;6.376;-10.782;2022-10-16T04:30:01;16.90;;;4.90;;
56297;SDS011;42208;6.376;-10.782;2022-10-16T04:32:30;10.63;;;4.68;;
56297;SDS011;42208;6.376;-10.782;2022-10-16T04:34:58;10.13;;;4.65;;
56297;SDS011;42208;6.376;-10.782;2022-10-16T04:37:26;10.30;;;4.40;;
56297;SDS011;42208;6.376;-10.782;2022-10-16T04:39:55;11.63;;;4.95;;
56297;SDS011;42208;6.376;-10.782;2022-10-16T04:42:23;13.65;;;5.68;;
56297;SDS011;42208;6.376;-10.782;2022-10-16T04:44:51;13.23;;;5.15;;
56297;SDS011;42208;6.376;-10.782;2022-10-16T04:47:19;14.45;;;5.10;;
56297;SDS011;42208;6.376;-10.782;2022-10-16T04:49:48;15.27;;;4.90;;
56297;SDS011;42208;6.376;-10.782;2022-10-16T04:52:16;14.32;;;5.30;;
56297;SDS011;42208;6.376;-10.782;2022-10-16T04:54:44;13.52;;;4.57;;
56297;SDS011;42208;6.376;-10.782;2022-10-16T04:57:12;8.65;;;3.65;;
56297;SDS011;42208;6.376;-10.782;2022-10-16T04:59:40;11.75;;;4.65;;
56297;SDS011;42208;6.376;-10.782;2022-10-16T05:02:09;9.60;;;4.80;;
56297;SDS011;42208;6.376;-10.782;2022-10-16T05:04:37;22.58;;;5.00;;
56297;SDS011;42208;6.376;-10.782;2022-10-16T05:07:05;18.25;;;5.25;;
56297;SDS011;42208;6.376;-10.782;2022-10-16T05:09:33;14.45;;;4.22;;
56297;SDS011;42208;6.376;-10.782;2022-10-16T05:12:02;16.00;;;5.35;;
56297;SDS011;42208;6.376;-10.782;2022-10-16T05:14:30;12.88;;;4.43;;
56297;SDS011;42208;6.376;-10.782;2022-10-16T05:16:59;14.27;;;4.45;;
56297;SDS011;42208;6.376;-10.782;2022-10-16T05:19:27;11.68;;;4.47;;
56297;SDS011;42208;6.376;-10.782;2022-10-16T05:21:55;14.25;;;5.15;;
56297;SDS011;42208;6.376;-10.782;2022-10-16T05:24:23;14.93;;;4.97;;
56297;SDS011;42208;6.376;-10.782;2022-10-16T05:26:52;11.88;;;5.28;;
56297;SDS011;42208;6.376;-10.782;2022-10-16T05:29:20;13.50;;;5.03;;
56297;SDS011;42208;6.376;-10.782;2022-10-16T05:31:52;15.52;;;6.28;;
56297;SDS011;42208;6.376;-10.782;2022-10-16T05:34:20;21.27;;;6.07;;
56297;SDS011;42208;6.376;-10.782;2022-10-16T05:36:48;12.40;;;5.80;;
56297;SDS011;42208;6.376;-10.782;2022-10-16T05:39:17;11.90;;;6.15;;
56297;SDS011;42208;6.376;-10.782;2022-10-16T05:41:45;12.50;;;5.15;;
56297;SDS011;42208;6.376;-10.782;2022-10-16T05:44:13;8.90;;;5.90;;
56297;SDS011;42208;6.376;-10.782;2022-10-16T05:46:41;14.70;;;6.78;;
56297;SDS011;42208;6.376;-10.782;2022-10-16T05:49:10;13.82;;;5.85;;
56297;SDS011;42208;6.376;-10.782;2022-10-16T05:51:38;14.40;;;6.22;;
56297;SDS011;42208;6.376;-10.782;2022-10-16T05:54:06;10.80;;;6.18;;
56297;SDS011;42208;6.376;-10.782;2022-10-16T05:56:34;13.18;;;6.40;;
56297;SDS011;42208;6.376;-10.782;2022-10-16T05:59:03;13.32;;;6.25;;
56297;SDS011;42208;6.376;-10.782;2022-10-16T06:01:32;13.52;;;5.88;;
56297;SDS011;42208;6.376;-10.782;2022-10-16T06:04:00;13.55;;;6.32;;
56297;SDS011;42208;6.376;-10.782;2022-10-16T06:06:28;10.82;;;5.80;;
56297;SDS011;42208;6.376;-10.782;2022-10-16T06:08:57;13.35;;;6.45;;
56297;SDS011;42208;6.376;-10.782;2022-10-16T06:11:26;9.95;;;5.57;;
56297;SDS011;42208;6.376;-10.782;2022-10-16T06:13:57;9.85;;;6.53;;
56297;SDS011;42208;6.376;-10.782;2022-10-16T06:16:27;14.80;;;6.78;;
56297;SDS011;42208;6.376;-10.782;2022-10-16T06:18:55;14.75;;;7.13;;
56297;SDS011;42208;6.376;-10.782;2022-10-16T06:21:24;11.82;;;6.68;;
56297;SDS011;42208;6.376;-10.782;2022-10-16T06:23:54;13.35;;;6.72;;
56297;SDS011;42208;6.376;-10.782;2022-10-16T06:26:24;13.95;;;6.47;;
56297;SDS011;42208;6.376;-10.782;2022-10-16T06:28:54;13.90;;;7.32;;
56297;SDS011;42208;6.376;-10.782;2022-10-16T06:31:23;13.52;;;6.97;;
56297;SDS011;42208;6.376;-10.782;2022-10-16T06:33:53;12.00;;;6.70;;
56297;SDS011;42208;6.376;-10.782;2022-10-16T06:36:22;17.25;;;7.50;;
56297;SDS011;42208;6.376;-10.782;2022-10-16T06:38:51;20.17;;;7.32;;
56297;SDS011;42208;6.376;-10.782;2022-10-16T06:41:20;19.83;;;6.80;;
56297;SDS011;42208;6.376;-10.782;2022-10-16T06:43:49;11.60;;;7.13;;
56297;SDS011;42208;6.376;-10.782;2022-10-16T06:46:19;14.07;;;7.25;;
56297;SDS011;42208;6.376;-10.782;2022-10-16T06:48:49;19.20;;;7.90;;
56297;SDS011;42208;6.376;-10.782;2022-10-16T06:51:19;14.65;;;7.10;;
56297;SDS011;42208;6.376;-10.782;2022-10-16T06:53:50;18.70;;;7.18;;
56297;SDS011;42208;6.376;-10.782;2022-10-16T06:56:29;12.45;;;7.55;;
56297;SDS011;42208;6.376;-10.782;2022-10-16T06:58:58;13.50;;;8.30;;
56297;SDS011;42208;6.376;-10.782;2022-10-16T07:01:27;15.35;;;9.70;;
56297;SDS011;42208;6.376;-10.782;2022-10-16T07:03:56;20.20;;;9.23;;
56297;SDS011;42208;6.376;-10.782;2022-10-16T07:06:25;17.67;;;9.90;;
56297;SDS011;42208;6.376;-10.782;2022-10-16T07:08:54;19.83;;;9.60;;
56297;SDS011;42208;6.376;-10.782;2022-10-16T07:11:23;23.63;;;9.40;;
56297;SDS011;42208;6.376;-10.782;2022-10-16T07:13:51;15.95;;;9.27;;
56297;SDS011;42208;6.376;-10.782;2022-10-16T07:16:23;19.45;;;9.85;;
56297;SDS011;42208;6.376;-10.782;2022-10-16T07:18:54;21.48;;;11.25;;
56297;SDS011;42208;6.376;-10.782;2022-10-16T07:21:23;26.00;;;12.13;;
56297;SDS011;42208;6.376;-10.782;2022-10-16T07:23:52;22.02;;;12.45;;
56297;SDS011;42208;6.376;-10.782;2022-10-16T07:26:22;22.02;;;12.93;;
56297;SDS011;42208;6.376;-10.782;2022-10-16T07:28:50;20.38;;;11.73;;
56297;SDS011;42208;6.376;-10.782;2022-10-16T07:31:21;21.13;;;13.18;;
56297;SDS011;42208;6.376;-10.782;2022-10-16T07:33:50;19.65;;;11.68;;
56297;SDS011;42208;6.376;-10.782;2022-10-16T07:36:19;22.27;;;11.00;;
56297;SDS011;42208;6.376;-10.782;2022-10-16T07:38:48;18.13;;;11.85;;
56297;SDS011;42208;6.376;-10.782;2022-10-16T07:41:21;25.23;;;12.15;;
56297;SDS011;42208;6.376;-10.782;2022-10-16T07:43:50;24.25;;;12.18;;
56297;SDS011;42208;6.376;-10.782;2022-10-16T07:46:20;21.75;;;11.45;;
56297;SDS011;42208;6.376;-10.782;2022-10-16T07:48:50;20.10;;;12.23;;
56297;SDS011;42208;6.376;-10.782;2022-10-16T07:51:19;22.83;;;13.25;;
56297;SDS011;42208;6.376;-10.782;2022-10-16T07:53:49;21.42;;;12.93;;
56297;SDS011;42208;6.376;-10.782;2022-10-16T07:56:18;28.75;;;13.15;;
56297;SDS011;42208;6.376;-10.782;2022-10-16T07:58:47;22.23;;;13.27;;
56297;SDS011;42208;6.376;-10.782;2022-10-16T08:01:15;19.02;;;12.00;;
56297;SDS011;42208;6.376;-10.782;2022-10-16T08:03:45;26.20;;;13.55;;
56297;SDS011;42208;6.376;-10.782;2022-10-16T08:06:15;25.48;;;12.57;;
56297;SDS011;42208;6.376;-10.782;2022-10-16T08:08:49;21.52;;;12.15;;
56297;SDS011;42208;6.376;-10.782;2022-10-16T08:11:17;32.58;;;12.52;;
56297;SDS011;42208;6.376;-10.782;2022-10-16T08:13:46;17.20;;;12.77;;
56297;SDS011;42208;6.376;-10.782;2022-10-16T08:16:14;26.60;;;15.30;;
56297;SDS011;42208;6.376;-10.782;2022-10-16T08:18:42;21.38;;;14.07;;
56297;SDS011;42208;6.376;-10.782;2022-10-16T08:21:14;20.92;;;13.13;;
56297;SDS011;42208;6.376;-10.782;2022-10-16T08:23:47;22.42;;;12.85;;
56297;SDS011;42208;6.376;-10.782;2022-10-16T08:26:24;25.75;;;15.95;;
56297;SDS011;42208;6.376;-10.782;2022-10-16T08:28:53;28.25;;;15.88;;
56297;SDS011;42208;6.376;-10.782;2022-10-16T08:31:22;33.33;;;15.23;;
56297;SDS011;42208;6.376;-10.782;2022-10-16T08:33:50;23.42;;;14.07;;
56297;SDS011;42208;6.376;-10.782;2022-10-16T08:36:19;26.23;;;14.85;;
56297;SDS011;42208;6.376;-10.782;2022-10-16T08:38:48;27.95;;;14.55;;
56297;SDS011;42208;6.376;-10.782;2022-10-16T08:49:41;24.08;;;15.55;;
56297;SDS011;42208;6.376;-10.782;2022-10-16T08:52:19;21.73;;;11.23;;
56297;SDS011;42208;6.376;-10.782;2022-10-16T08:54:47;18.27;;;8.52;;
56297;SDS011;42208;6.376;-10.782;2022-10-16T08:57:22;18.27;;;9.20;;
56297;SDS011;42208;6.376;-10.782;2022-10-16T08:59:52;19.52;;;10.40;;
56297;SDS011;42208;6.376;-10.782;2022-10-16T09:02:24;17.55;;;10.20;;
56297;SDS011;42208;6.376;-10.782;2022-10-16T09:16:24;16.50;;;9.77;;
56297;SDS011;42208;6.376;-10.782;2022-10-16T09:21:36;18.85;;;8.30;;
56297;SDS011;42208;6.376;-10.782;2022-10-16T09:24:16;23.95;;;8.60;;
56297;SDS011;42208;6.376;-10.782;2022-10-16T09:26:46;21.05;;;6.88;;
56297;SDS011;42208;6.376;-10.782;2022-10-16T09:29:18;19.20;;;7.95;;
56297;SDS011;42208;6.376;-10.782;2022-10-16T09:31:48;21.20;;;7.18;;
56297;SDS011;42208;6.376;-10.782;2022-10-16T09:36:57;18.17;;;6.90;;
56297;SDS011;42208;6.376;-10.782;2022-10-16T09:39:49;13.88;;;7.47;;
56297;SDS011;42208;6.376;-10.782;2022-10-16T09:42:20;16.40;;;7.50;;
56297;SDS011;42208;6.376;-10.782;2022-10-16T09:44:53;17.83;;;8.38;;
56297;SDS011;42208;6.376;-10.782;2022-10-16T09:47:25;19.58;;;8.63;;
56297;SDS011;42208;6.376;-10.782;2022-10-16T09:50:04;18.88;;;8.43;;
56297;SDS011;42208;6.376;-10.782;2022-10-16T09:52:47;28.38;;;8.70;;
56297;SDS011;42208;6.376;-10.782;2022-10-16T09:55:16;19.52;;;8.90;;
56297;SDS011;42208;6.376;-10.782;2022-10-16T09:57:52;21.45;;;7.65;;
56297;SDS011;42208;6.376;-10.782;2022-10-16T10:00:22;13.10;;;6.22;;
56297;SDS011;42208;6.376;-10.782;2022-10-16T10:02:51;14.85;;;6.43;;
56297;SDS011;42208;6.376;-10.782;2022-10-16T10:05:27;14.05;;;6.40;;
56297;SDS011;42208;6.376;-10.782;2022-10-16T10:07:59;13.05;;;5.63;;
56297;SDS011;42208;6.376;-10.782;2022-10-16T10:10:30;14.07;;;5.30;;
56297;SDS011;42208;6.376;-10.782;2022-10-16T10:12:59;12.93;;;4.45;;
56297;SDS011;42208;6.376;-10.782;2022-10-16T10:15:29;11.00;;;4.35;;
56297;SDS011;42208;6.376;-10.782;2022-10-16T10:18:01;13.50;;;4.57;;
56297;SDS011;42208;6.376;-10.782;2022-10-16T10:20:32;10.57;;;4.28;;
56297;SDS011;42208;6.376;-10.782;2022-10-16T10:23:13;9.50;;;4.18;;
56297;SDS011;42208;6.376;-10.782;2022-10-16T10:28:47;6.82;;;3.55;;
56297;SDS011;42208;6.376;-10.782;2022-10-16T10:32:06;6.50;;;3.35;;
56297;SDS011;42208;6.376;-10.782;2022-10-16T10:40:43;9.85;;;3.55;;
56297;SDS011;42208;6.376;-10.782;2022-10-16T10:46:04;8.63;;;3.92;;
56297;SDS011;42208;6.376;-10.782;2022-10-16T10:48:53;8.20;;;3.90;;
56297;SDS011;42208;6.376;-10.782;2022-10-16T10:51:38;6.60;;;3.58;;
56297;SDS011;42208;6.376;-10.782;2022-10-16T10:54:51;6.22;;;3.35;;
56297;SDS011;42208;6.376;-10.782;2022-10-16T10:57:09;8.27;;;3.60;;
56297;SDS011;42208;6.376;-10.782;2022-10-16T11:02:26;9.27;;;3.28;;
56297;SDS011;42208;6.376;-10.782;2022-10-16T11:05:10;8.18;;;3.00;;
56297;SDS011;42208;6.376;-10.782;2022-10-16T11:07:48;6.72;;;4.07;;
56297;SDS011;42208;6.376;-10.782;2022-10-16T11:10:54;10.75;;;4.78;;
56297;SDS011;42208;6.376;-10.782;2022-10-16T11:16:03;10.60;;;4.43;;
56297;SDS011;42208;6.376;-10.782;2022-10-16T11:18:49;11.50;;;3.85;;
56297;SDS011;42208;6.376;-10.782;2022-10-16T11:21:30;9.10;;;3.80;;
56297;SDS011;42208;6.376;-10.782;2022-10-16T11:24:11;8.48;;;3.90;;
56297;SDS011;42208;6.376;-10.782;2022-10-16T11:26:51;16.38;;;5.40;;
56297;SDS011;42208;6.376;-10.782;2022-10-16T11:29:23;15.80;;;5.78;;
56297;SDS011;42208;6.376;-10.782;2022-10-16T11:32:00;14.85;;;5.85;;
56297;SDS011;42208;6.376;-10.782;2022-10-16T11:34:53;15.60;;;5.32;;
56297;SDS011;42208;6.376;-10.782;2022-10-16T11:37:30;17.25;;;6.07;;
56297;SDS011;42208;6.376;-10.782;2022-10-16T11:40:28;16.52;;;6.03;;
56297;SDS011;42208;6.376;-10.782;2022-10-16T11:43:06;17.88;;;4.95;;
56297;SDS011;42208;6.376;-10.782;2022-10-16T11:45:57;28.27;;;9.57;;
56297;SDS011;42208;6.376;-10.782;2022-10-16T11:48:37;14.85;;;5.70;;
56297;SDS011;42208;6.376;-10.782;2022-10-16T11:51:40;19.27;;;5.93;;
56297;SDS011;42208;6.376;-10.782;2022-10-16T11:57:19;11.37;;;5.47;;
56297;SDS011;42208;6.376;-10.782;2022-10-16T11:59:58;19.10;;;5.07;;
56297;SDS011;42208;6.376;-10.782;2022-10-16T12:03:11;24.05;;;6.78;;
56297;SDS011;42208;6.376;-10.782;2022-10-16T12:08:51;17.35;;;5.57;;
56297;SDS011;42208;6.376;-10.782;2022-10-16T12:19:20;20.67;;;5.60;;
56297;SDS011;42208;6.376;-10.782;2022-10-16T12:21:49;14.85;;;5.25;;
56297;SDS011;42208;6.376;-10.782;2022-10-16T12:24:20;13.90;;;5.57;;
56297;SDS011;42208;6.376;-10.782;2022-10-16T12:27:04;15.02;;;5.22;;
56297;SDS011;42208;6.376;-10.782;2022-10-16T12:29:38;12.93;;;5.23;;
56297;SDS011;42208;6.376;-10.782;2022-10-16T12:35:19;15.38;;;4.63;;
56297;SDS011;42208;6.376;-10.782;2022-10-16T12:37:50;12.40;;;5.55;;
56297;SDS011;42208;6.376;-10.782;2022-10-16T12:40:26;21.13;;;5.78;;
56297;SDS011;42208;6.376;-10.782;2022-10-16T12:42:58;20.95;;;6.22;;
56297;SDS011;42208;6.376;-10.782;2022-10-16T12:45:38;15.43;;;5.25;;
56297;SDS011;42208;6.376;-10.782;2022-10-16T12:48:18;14.63;;;5.28;;
56297;SDS011;42208;6.376;-10.782;2022-10-16T12:50:47;15.93;;;5.20;;
56297;SDS011;42208;6.376;-10.782;2022-10-16T12:53:25;15.40;;;5.60;;
56297;SDS011;42208;6.376;-10.782;2022-10-16T12:58:58;11.17;;;5.30;;
56297;SDS011;42208;6.376;-10.782;2022-10-16T13:01:56;11.93;;;5.35;;
56297;SDS011;42208;6.376;-10.782;2022-10-16T13:05:10;13.52;;;4.55;;
56297;SDS011;42208;6.376;-10.782;2022-10-16T13:07:48;19.90;;;5.70;;
56297;SDS011;42208;6.376;-10.782;2022-10-16T13:13:15;15.07;;;6.18;;
56297;SDS011;42208;6.376;-10.782;2022-10-16T13:27:13;15.93;;;5.55;;
56297;SDS011;42208;6.376;-10.782;2022-10-16T13:29:45;10.50;;;4.53;;
56297;SDS011;42208;6.376;-10.782;2022-10-16T13:32:19;19.65;;;5.53;;
56297;SDS011;42208;6.376;-10.782;2022-10-16T13:34:48;13.10;;;5.22;;
56297;SDS011;42208;6.376;-10.782;2022-10-16T13:37:21;13.27;;;4.45;;
56297;SDS011;42208;6.376;-10.782;2022-10-16T13:40:01;10.70;;;4.10;;
56297;SDS011;42208;6.376;-10.782;2022-10-16T13:42:50;10.98;;;5.00;;
56297;SDS011;42208;6.376;-10.782;2022-10-16T13:45:21;17.73;;;5.25;;
56297;SDS011;42208;6.376;-10.782;2022-10-16T13:48:04;15.00;;;5.10;;
56297;SDS011;42208;6.376;-10.782;2022-10-16T13:53:05;15.57;;;4.72;;
56297;SDS011;42208;6.376;-10.782;2022-10-16T13:55:37;17.13;;;4.90;;
56297;SDS011;42208;6.376;-10.782;2022-10-16T13:58:10;21.88;;;5.38;;
56297;SDS011;42208;6.376;-10.782;2022-10-16T14:00:41;17.55;;;6.28;;
56297;SDS011;42208;6.376;-10.782;2022-10-16T14:03:31;20.35;;;5.63;;
56297;SDS011;42208;6.376;-10.782;2022-10-16T14:06:02;13.70;;;5.05;;
56297;SDS011;42208;6.376;-10.782;2022-10-16T14:08:34;17.92;;;4.75;;
56297;SDS011;42208;6.376;-10.782;2022-10-16T14:11:02;13.60;;;4.72;;
56297;SDS011;42208;6.376;-10.782;2022-10-16T14:16:09;13.25;;;4.05;;
56297;SDS011;42208;6.376;-10.782;2022-10-16T14:18:44;14.57;;;4.82;;
56297;SDS011;42208;6.376;-10.782;2022-10-16T14:21:23;19.88;;;4.03;;
56297;SDS011;42208;6.376;-10.782;2022-10-16T14:23:52;16.60;;;4.70;;
56297;SDS011;42208;6.376;-10.782;2022-10-16T14:26:25;17.08;;;4.80;;
56297;SDS011;42208;6.376;-10.782;2022-10-16T14:29:04;10.32;;;4.10;;
56297;SDS011;42208;6.376;-10.782;2022-10-16T14:31:39;14.10;;;4.50;;
56297;SDS011;42208;6.376;-10.782;2022-10-16T14:34:24;12.50;;;4.45;;
56297;SDS011;42208;6.376;-10.782;2022-10-16T14:36:58;24.48;;;4.78;;
56297;SDS011;42208;6.376;-10.782;2022-10-16T14:39:54;19.65;;;4.63;;
56297;SDS011;42208;6.376;-10.782;2022-10-16T14:42:23;15.32;;;5.18;;
56297;SDS011;42208;6.376;-10.782;2022-10-16T14:44:53;20.33;;;4.80;;
56297;SDS011;42208;6.376;-10.782;2022-10-16T14:47:23;15.02;;;4.97;;
56297;SDS011;42208;6.376;-10.782;2022-10-16T14:49:53;15.32;;;4.57;;
56297;SDS011;42208;6.376;-10.782;2022-10-16T14:52:22;13.75;;;4.75;;
56297;SDS011;42208;6.376;-10.782;2022-10-16T14:54:50;11.73;;;4.47;;
56297;SDS011;42208;6.376;-10.782;2022-10-16T14:57:19;19.52;;;7.75;;
56297;SDS011;42208;6.376;-10.782;2022-10-16T14:59:50;24.42;;;5.13;;
56297;SDS011;42208;6.376;-10.782;2022-10-16T15:02:29;19.08;;;7.47;;
56297;SDS011;42208;6.376;-10.782;2022-10-16T15:05:07;18.63;;;4.70;;
56297;SDS011;42208;6.376;-10.782;2022-10-16T15:07:41;16.90;;;4.18;;
56297;SDS011;42208;6.376;-10.782;2022-10-16T15:10:09;20.92;;;4.88;;
56297;SDS011;42208;6.376;-10.782;2022-10-16T15:12:37;19.15;;;4.38;;
56297;SDS011;42208;6.376;-10.782;2022-10-16T15:17:52;15.88;;;4.43;;
56297;SDS011;42208;6.376;-10.782;2022-10-16T15:20:25;15.25;;;4.65;;
56297;SDS011;42208;6.376;-10.782;2022-10-16T15:22:55;26.40;;;4.60;;
56297;SDS011;42208;6.376;-10.782;2022-10-16T15:25:43;7.70;;;3.58;;
56297;SDS011;42208;6.376;-10.782;2022-10-16T15:28:14;20.80;;;4.82;;
56297;SDS011;42208;6.376;-10.782;2022-10-16T15:30:43;19.50;;;4.32;;
56297;SDS011;42208;6.376;-10.782;2022-10-16T15:33:13;11.82;;;4.00;;
56297;SDS011;42208;6.376;-10.782;2022-10-16T15:35:47;17.52;;;4.60;;
56297;SDS011;42208;6.376;-10.782;2022-10-16T15:38:17;17.27;;;4.22;;
56297;SDS011;42208;6.376;-10.782;2022-10-16T15:40:47;12.68;;;4.05;;
56297;SDS011;42208;6.376;-10.782;2022-10-16T15:43:16;10.52;;;3.65;;
56297;SDS011;42208;6.376;-10.782;2022-10-16T15:45:46;17.42;;;3.83;;
56297;SDS011;42208;6.376;-10.782;2022-10-16T15:48:28;17.80;;;4.20;;
56297;SDS011;42208;6.376;-10.782;2022-10-16T15:50:57;11.40;;;3.22;;
56297;SDS011;42208;6.376;-10.782;2022-10-16T15:53:26;10.95;;;3.40;;
56297;SDS011;42208;6.376;-10.782;2022-10-16T15:55:54;14.77;;;3.92;;
56297;SDS011;42208;6.376;-10.782;2022-10-16T15:58:22;16.13;;;4.55;;
56297;SDS011;42208;6.376;-10.782;2022-10-16T16:00:54;9.45;;;3.70;;
56297;SDS011;42208;6.376;-10.782;2022-10-16T16:03:26;9.05;;;2.92;;
56297;SDS011;42208;6.376;-10.782;2022-10-16T16:05:55;11.05;;;3.60;;
56297;SDS011;42208;6.376;-10.782;2022-10-16T16:08:24;14.85;;;3.85;;
56297;SDS011;42208;6.376;-10.782;2022-10-16T16:11:04;13.18;;;3.65;;
56297;SDS011;42208;6.376;-10.782;2022-10-16T16:13:40;9.45;;;3.95;;
56297;SDS011;42208;6.376;-10.782;2022-10-16T16:16:09;12.70;;;3.35;;
56297;SDS011;42208;6.376;-10.782;2022-10-16T16:18:39;9.45;;;3.83;;
56297;SDS011;42208;6.376;-10.782;2022-10-16T16:21:10;17.70;;;4.38;;
56297;SDS011;42208;6.376;-10.782;2022-10-16T16:23:39;12.48;;;4.13;;
56297;SDS011;42208;6.376;-10.782;2022-10-16T16:26:10;13.90;;;3.95;;
56297;SDS011;42208;6.376;-10.782;2022-10-16T16:31:17;10.23;;;3.75;;
56297;SDS011;42208;6.376;-10.782;2022-10-16T16:33:45;16.55;;;4.47;;